sensor_id;sensor_type;location;lat;lon;timestamp;pressure;altitude;pressure_sealevel;temperature;humidity
40490;BME280;26196;52.302;10.572;2023-01-19T00:02:40;99195.00;;;8.30;45.32
40490;BME280;26196;52.302;10.572;2023-01-19T00:06:43;99201.06;;;8.30;45.61
40490;BME280;26196;52.302;10.572;2023-01-19T00:10:46;99196.78;;;8.29;45.49
40490;BME280;26196;52.302;10.572;2023-01-19T00:14:47;99203.69;;;8.30;45.47
40490;BME280;26196;52.302;10.572;2023-01-19T00:18:49;99186.56;;;8.23;45.05
40490;BME280;26196;52.302;10.572;2023-01-19T00:22:50;99188.22;;;8.26;45.14
40490;BME280;26196;52.302;10.572;2023-01-19T00:26:50;99190.88;;;8.24;45.61
40490;BME280;26196;52.302;10.572;2023-01-19T00:30:51;99186.56;;;8.23;45.48
40490;BME280;26196;52.302;10.572;2023-01-19T00:34:51;99190.13;;;8.21;45.36
40490;BME280;26196;52.302;10.572;2023-01-19T00:38:51;99195.34;;;8.21;45.32
40490;BME280;26196;52.302;10.572;2023-01-19T00:42:52;99197.06;;;8.22;45.11
40490;BME280;26196;52.302;10.572;2023-01-19T00:46:52;99195.44;;;8.19;45.14
40490;BME280;26196;52.302;10.572;2023-01-19T00:50:52;99192.94;;;8.16;45.49
40490;BME280;26196;52.302;10.572;2023-01-19T00:54:53;99187.78;;;8.15;45.15
40490;BME280;26196;52.302;10.572;2023-01-19T00:58:53;99180.94;;;8.12;45.81
40490;BME280;26196;52.302;10.572;2023-01-19T01:02:54;99188.59;;;8.17;45.81
40490;BME280;26196;52.302;10.572;2023-01-19T01:06:54;99181.78;;;8.13;45.45
40490;BME280;26196;52.302;10.572;2023-01-19T01:10:55;99182.63;;;8.13;45.44
40490;BME280;26196;52.302;10.572;2023-01-19T01:14:56;99191.22;;;8.15;45.89
40490;BME280;26196;52.302;10.572;2023-01-19T01:18:56;99188.78;;;8.10;45.17
40490;BME280;26196;52.302;10.572;2023-01-19T01:22:56;99192.28;;;8.11;46.23
40490;BME280;26196;52.302;10.572;2023-01-19T01:26:57;99188.91;;;8.07;45.49
40490;BME280;26196;52.302;10.572;2023-01-19T01:30:57;99191.41;;;8.10;45.62
40490;BME280;26196;52.302;10.572;2023-01-19T01:34:58;99189.72;;;8.09;45.12
40490;BME280;26196;52.302;10.572;2023-01-19T01:38:58;99198.38;;;8.10;45.96
40490;BME280;26196;52.302;10.572;2023-01-19T01:42:59;99199.22;;;8.10;46.28
40490;BME280;26196;52.302;10.572;2023-01-19T01:47:00;99190.63;;;8.08;45.88
40490;BME280;26196;52.302;10.572;2023-01-19T01:51:08;99191.47;;;8.09;45.91
40490;BME280;26196;52.302;10.572;2023-01-19T01:55:27;99193.16;;;8.10;46.35
40490;BME280;26196;52.302;10.572;2023-01-19T01:59:33;99199.13;;;8.14;46.26
40490;BME280;26196;52.302;10.572;2023-01-19T02:03:38;99207.00;;;8.12;46.31
40490;BME280;26196;52.302;10.572;2023-01-19T02:08:02;99198.25;;;8.13;46.46
40490;BME280;26196;52.302;10.572;2023-01-19T02:12:23;99199.97;;;8.14;46.47
40490;BME280;26196;52.302;10.572;2023-01-19T02:16:42;99201.78;;;8.12;46.18
40490;BME280;26196;52.302;10.572;2023-01-19T02:21:01;99206.06;;;8.13;46.76
40490;BME280;26196;52.302;10.572;2023-01-19T02:25:04;99207.84;;;8.13;46.80
40490;BME280;26196;52.302;10.572;2023-01-19T02:29:10;99209.59;;;8.12;46.19
40490;BME280;26196;52.302;10.572;2023-01-19T02:33:12;99193.25;;;8.08;46.69
40490;BME280;26196;52.302;10.572;2023-01-19T02:37:14;99207.13;;;8.09;46.13
40490;BME280;26196;52.302;10.572;2023-01-19T02:41:19;99201.81;;;8.10;46.73
40490;BME280;26196;52.302;10.572;2023-01-19T02:45:22;99189.84;;;8.06;46.97
40490;BME280;26196;52.302;10.572;2023-01-19T02:49:26;99208.91;;;8.07;46.81
40490;BME280;26196;52.302;10.572;2023-01-19T03:10:18;99179.47;;;8.05;47.13
40490;BME280;26196;52.302;10.572;2023-01-19T03:14:20;99178.56;;;8.06;46.58
40490;BME280;26196;52.302;10.572;2023-01-19T03:18:24;99169.88;;;8.05;46.60
40490;BME280;26196;52.302;10.572;2023-01-19T03:22:28;99170.75;;;8.06;47.39
40490;BME280;26196;52.302;10.572;2023-01-19T03:26:31;99171.72;;;8.03;46.56
40490;BME280;26196;52.302;10.572;2023-01-19T03:30:37;99173.16;;;8.10;47.12
40490;BME280;26196;52.302;10.572;2023-01-19T03:34:40;99171.59;;;8.06;46.87
40490;BME280;26196;52.302;10.572;2023-01-19T03:38:43;99170.75;;;8.06;47.06
40490;BME280;26196;52.302;10.572;2023-01-19T03:42:46;99184.53;;;8.08;46.89
40490;BME280;26196;52.302;10.572;2023-01-19T03:46:48;99184.63;;;8.06;47.92
40490;BME280;26196;52.302;10.572;2023-01-19T03:50:50;99190.69;;;8.07;46.86
40490;BME280;26196;52.302;10.572;2023-01-19T03:54:51;99190.69;;;8.07;47.51
40490;BME280;26196;52.302;10.572;2023-01-19T03:58:52;99194.94;;;8.09;47.78
40490;BME280;26196;52.302;10.572;2023-01-19T04:02:52;99196.69;;;8.09;47.80
40490;BME280;26196;52.302;10.572;2023-01-19T04:06:52;99191.47;;;8.09;48.20
40490;BME280;26196;52.302;10.572;2023-01-19T04:10:53;99188.13;;;8.05;47.75
40490;BME280;26196;52.302;10.572;2023-01-19T04:14:53;99181.28;;;8.03;47.46
40490;BME280;26196;52.302;10.572;2023-01-19T04:18:53;99188.91;;;8.07;48.34
40490;BME280;26196;52.302;10.572;2023-01-19T04:22:58;99186.28;;;8.09;48.25
40490;BME280;26196;52.302;10.572;2023-01-19T04:26:58;99185.31;;;8.11;48.08
40490;BME280;26196;52.302;10.572;2023-01-19T04:30:59;99187.16;;;8.08;48.02
40490;BME280;26196;52.302;10.572;2023-01-19T04:35:00;99193.84;;;8.15;46.91
40490;BME280;26196;52.302;10.572;2023-01-19T04:39:00;99186.31;;;8.07;47.65
40490;BME280;26196;52.302;10.572;2023-01-19T04:43:01;99194.13;;;8.07;47.54
40490;BME280;26196;52.302;10.572;2023-01-19T04:47:01;99188.31;;;8.01;47.83
40490;BME280;26196;52.302;10.572;2023-01-19T04:51:02;99166.84;;;7.94;46.99
40490;BME280;26196;52.302;10.572;2023-01-19T04:55:04;99182.19;;;8.02;47.30
40490;BME280;26196;52.302;10.572;2023-01-19T04:59:05;99180.53;;;7.99;47.60
40490;BME280;26196;52.302;10.572;2023-01-19T05:03:06;99187.53;;;7.99;47.60
40490;BME280;26196;52.302;10.572;2023-01-19T05:07:06;99189.16;;;8.01;47.28
40490;BME280;26196;52.302;10.572;2023-01-19T05:11:06;99185.75;;;7.99;47.48
40490;BME280;26196;52.302;10.572;2023-01-19T05:15:07;99196.91;;;8.03;47.50
40490;BME280;26196;52.302;10.572;2023-01-19T05:19:08;99203.88;;;8.02;47.58
40490;BME280;26196;52.302;10.572;2023-01-19T05:23:09;99202.13;;;8.03;47.41
40490;BME280;26196;52.302;10.572;2023-01-19T05:27:10;99197.94;;;7.99;47.69
40490;BME280;26196;52.302;10.572;2023-01-19T05:31:10;99197.94;;;7.99;47.49
40490;BME280;26196;52.302;10.572;2023-01-19T05:35:10;99191.13;;;7.95;47.61
40490;BME280;26196;52.302;10.572;2023-01-19T05:39:12;99204.16;;;7.95;47.96
40490;BME280;26196;52.302;10.572;2023-01-19T05:43:13;99192.19;;;7.91;47.74
40490;BME280;26196;52.302;10.572;2023-01-19T05:47:13;99205.88;;;7.96;48.29
40490;BME280;26196;52.302;10.572;2023-01-19T05:51:14;99197.38;;;7.91;48.13
40490;BME280;26196;52.302;10.572;2023-01-19T05:55:14;99205.88;;;7.96;47.84
40490;BME280;26196;52.302;10.572;2023-01-19T05:59:15;99207.69;;;7.94;48.17
40490;BME280;26196;52.302;10.572;2023-01-19T06:03:22;99201.06;;;8.08;49.26
40490;BME280;26196;52.302;10.572;2023-01-19T06:07:23;99210.91;;;8.24;49.47
40490;BME280;26196;52.302;10.572;2023-01-19T06:11:23;99207.75;;;8.38;48.97
40490;BME280;26196;52.302;10.572;2023-01-19T06:15:25;99205.69;;;8.47;49.14
40490;BME280;26196;52.302;10.572;2023-01-19T06:19:25;99208.03;;;8.53;49.53
40490;BME280;26196;52.302;10.572;2023-01-19T06:23:28;99219.06;;;8.60;49.88
40490;BME280;26196;52.302;10.572;2023-01-19T06:27:29;99208.53;;;8.63;50.25
40490;BME280;26196;52.302;10.572;2023-01-19T06:31:29;99217.06;;;8.67;50.09
40490;BME280;26196;52.302;10.572;2023-01-19T06:35:30;99208.75;;;8.57;49.66
40490;BME280;26196;52.302;10.572;2023-01-19T06:39:30;99212.44;;;8.51;49.45
40490;BME280;26196;52.302;10.572;2023-01-19T06:43:31;99221.25;;;8.49;49.43
40490;BME280;26196;52.302;10.572;2023-01-19T06:47:31;99226.59;;;8.46;49.49
40490;BME280;26196;52.302;10.572;2023-01-19T06:51:33;99236.16;;;8.45;49.40
40490;BME280;26196;52.302;10.572;2023-01-19T06:55:33;99240.63;;;8.42;49.12
40490;BME280;26196;52.302;10.572;2023-01-19T06:59:35;99233.78;;;8.39;48.69
40490;BME280;26196;52.302;10.572;2023-01-19T07:03:35;99242.47;;;8.40;48.87
40490;BME280;26196;52.302;10.572;2023-01-19T07:07:37;99238.94;;;8.41;49.22
40490;BME280;26196;52.302;10.572;2023-01-19T07:11:38;99253.59;;;8.45;49.37
40490;BME280;26196;52.302;10.572;2023-01-19T07:15:39;99259.69;;;8.44;49.50
40490;BME280;26196;52.302;10.572;2023-01-19T07:19:40;99255.31;;;8.44;49.35
40490;BME280;26196;52.302;10.572;2023-01-19T07:23:40;99262.16;;;8.47;49.95
40490;BME280;26196;52.302;10.572;2023-01-19T07:27:42;99266.63;;;8.45;49.72
40490;BME280;26196;52.302;10.572;2023-01-19T07:31:44;99275.88;;;8.52;49.23
40490;BME280;26196;52.302;10.572;2023-01-19T07:35:48;99274.75;;;8.59;49.33
40490;BME280;26196;52.302;10.572;2023-01-19T07:39:48;99282.28;;;8.67;49.16
40490;BME280;26196;52.302;10.572;2023-01-19T07:43:49;99278.56;;;8.72;49.04
40490;BME280;26196;52.302;10.572;2023-01-19T07:47:50;99285.31;;;8.78;48.63
40490;BME280;26196;52.302;10.572;2023-01-19T07:51:50;99294.63;;;8.84;48.51
40490;BME280;26196;52.302;10.572;2023-01-19T07:55:55;99287.81;;;8.81;48.69
40490;BME280;26196;52.302;10.572;2023-01-19T07:59:55;99299.69;;;8.88;48.66
40490;BME280;26196;52.302;10.572;2023-01-19T08:03:56;99302.13;;;8.93;48.30
40490;BME280;26196;52.302;10.572;2023-01-19T08:07:57;99286.34;;;8.96;48.57
40490;BME280;26196;52.302;10.572;2023-01-19T08:11:58;99297.44;;;9.01;48.51
40490;BME280;26196;52.302;10.572;2023-01-19T08:15:58;99297.69;;;8.95;47.83
40490;BME280;26196;52.302;10.572;2023-01-19T08:19:58;99291.28;;;8.82;48.32
40490;BME280;26196;52.302;10.572;2023-01-19T08:23:59;99285.25;;;8.80;48.86
40490;BME280;26196;52.302;10.572;2023-01-19T08:27:59;99284.47;;;8.77;49.00
40490;BME280;26196;52.302;10.572;2023-01-19T08:32:00;99285.38;;;8.76;48.80
40490;BME280;26196;52.302;10.572;2023-01-19T08:36:02;99294.06;;;8.77;49.15
40490;BME280;26196;52.302;10.572;2023-01-19T08:40:02;99291.50;;;8.75;48.70
40490;BME280;26196;52.302;10.572;2023-01-19T08:44:03;99294.78;;;8.81;48.98
40490;BME280;26196;52.302;10.572;2023-01-19T08:48:03;99294.63;;;8.84;48.84
40490;BME280;26196;52.302;10.572;2023-01-19T08:52:05;99294.00;;;8.79;48.69
40490;BME280;26196;52.302;10.572;2023-01-19T08:56:06;99305.28;;;8.79;49.92
40490;BME280;26196;52.302;10.572;2023-01-19T09:00:11;99299.28;;;8.77;50.22
40490;BME280;26196;52.302;10.572;2023-01-19T09:04:12;99302.72;;;8.77;49.94
40490;BME280;26196;52.302;10.572;2023-01-19T09:08:13;99303.66;;;8.76;49.85
40490;BME280;26196;52.302;10.572;2023-01-19T09:12:14;99296.84;;;8.72;49.78
40490;BME280;26196;52.302;10.572;2023-01-19T09:16:15;99308.19;;;8.71;50.05
40490;BME280;26196;52.302;10.572;2023-01-19T09:20:15;99306.38;;;8.73;50.06
40490;BME280;26196;52.302;10.572;2023-01-19T09:24:16;99315.88;;;8.74;49.89
40490;BME280;26196;52.302;10.572;2023-01-19T09:28:16;99321.09;;;8.74;49.87
40490;BME280;26196;52.302;10.572;2023-01-19T09:32:17;99303.84;;;8.70;49.61
40490;BME280;26196;52.302;10.572;2023-01-19T09:36:18;99309.88;;;8.72;49.41
40490;BME280;26196;52.302;10.572;2023-01-19T09:40:19;99317.69;;;8.72;50.40
40490;BME280;26196;52.302;10.572;2023-01-19T09:44:27;99313.41;;;8.71;50.68
40490;BME280;26196;52.302;10.572;2023-01-19T09:49:11;99315.06;;;8.74;50.72
40490;BME280;26196;52.302;10.572;2023-01-19T09:52:57;99313.28;;;8.74;49.93
40490;BME280;26196;52.302;10.572;2023-01-19T09:57:09;99319.28;;;8.76;49.78
40490;BME280;26196;52.302;10.572;2023-01-19T10:05:47;99336.63;;;8.77;50.72
40490;BME280;26196;52.302;10.572;2023-01-19T10:10:01;99328.81;;;8.77;50.25
40490;BME280;26196;52.302;10.572;2023-01-19T10:14:12;99322.91;;;8.72;50.17
40490;BME280;26196;52.302;10.572;2023-01-19T10:18:28;99320.25;;;8.74;50.20
40490;BME280;26196;52.302;10.572;2023-01-19T10:22:36;99315.88;;;8.74;50.64
40490;BME280;26196;52.302;10.572;2023-01-19T10:26:42;99319.41;;;8.73;50.54
40490;BME280;26196;52.302;10.572;2023-01-19T10:30:45;99324.50;;;8.76;50.36
40490;BME280;26196;52.302;10.572;2023-01-19T10:34:48;99322.03;;;8.73;50.41
40490;BME280;26196;52.302;10.572;2023-01-19T10:38:48;99323.72;;;8.74;50.38
40490;BME280;26196;52.302;10.572;2023-01-19T10:42:50;99325.41;;;8.75;50.84
40490;BME280;26196;52.302;10.572;2023-01-19T10:46:51;99327.03;;;8.78;50.21
40490;BME280;26196;52.302;10.572;2023-01-19T10:51:03;99328.69;;;8.81;50.96
40490;BME280;26196;52.302;10.572;2023-01-19T10:55:06;99336.50;;;8.81;50.39
40490;BME280;26196;52.302;10.572;2023-01-19T10:59:46;99336.38;;;8.84;50.66
40490;BME280;26196;52.302;10.572;2023-01-19T11:03:49;99327.03;;;8.78;50.44
40490;BME280;26196;52.302;10.572;2023-01-19T11:07:50;99331.25;;;8.82;50.04
40490;BME280;26196;52.302;10.572;2023-01-19T11:11:51;99339.06;;;8.82;51.20
40490;BME280;26196;52.302;10.572;2023-01-19T11:15:56;99337.25;;;8.84;50.28
40490;BME280;26196;52.302;10.572;2023-01-19T11:19:59;99343.44;;;8.82;50.53
40490;BME280;26196;52.302;10.572;2023-01-19T11:24:03;99336.50;;;8.81;50.50
40490;BME280;26196;52.302;10.572;2023-01-19T11:28:16;99343.44;;;8.82;50.59
40490;BME280;26196;52.302;10.572;2023-01-19T11:32:19;99343.22;;;8.88;50.61
40490;BME280;26196;52.302;10.572;2023-01-19T11:36:22;99344.88;;;8.89;50.54
40490;BME280;26196;52.302;10.572;2023-01-19T11:40:23;99349.22;;;8.90;51.07
40490;BME280;26196;52.302;10.572;2023-01-19T11:44:28;99334.44;;;8.89;50.71
40490;BME280;26196;52.302;10.572;2023-01-19T11:48:31;99335.25;;;8.91;50.96
40490;BME280;26196;52.302;10.572;2023-01-19T11:52:41;99336.88;;;8.93;50.71
40490;BME280;26196;52.302;10.572;2023-01-19T11:56:42;99344.66;;;8.95;51.06
40490;BME280;26196;52.302;10.572;2023-01-19T12:04:44;99338.53;;;8.96;50.64
40490;BME280;26196;52.302;10.572;2023-01-19T12:12:56;99341.13;;;8.96;50.76
40490;BME280;26196;52.302;10.572;2023-01-19T12:16:59;99341.09;;;8.97;51.20
40490;BME280;26196;52.302;10.572;2023-01-19T12:21:02;99344.53;;;8.98;51.43
40490;BME280;26196;52.302;10.572;2023-01-19T12:25:19;99339.28;;;9.00;51.15
40490;BME280;26196;52.302;10.572;2023-01-19T12:29:23;99348.84;;;8.99;51.33
40490;BME280;26196;52.302;10.572;2023-01-19T12:37:41;99351.16;;;9.07;51.50
40490;BME280;26196;52.302;10.572;2023-01-19T12:41:42;99351.34;;;9.02;51.62
40490;BME280;26196;52.302;10.572;2023-01-19T12:45:43;99366.06;;;9.05;51.06
40490;BME280;26196;52.302;10.572;2023-01-19T12:49:52;99364.28;;;9.05;51.41
40490;BME280;26196;52.302;10.572;2023-01-19T12:53:56;99369.34;;;9.10;51.12
40490;BME280;26196;52.302;10.572;2023-01-19T12:58:21;99365.00;;;9.09;51.82
40490;BME280;26196;52.302;10.572;2023-01-19T13:15:43;99386.69;;;9.11;51.89
40490;BME280;26196;52.302;10.572;2023-01-19T13:19:46;99382.19;;;9.14;51.57
40490;BME280;26196;52.302;10.572;2023-01-19T13:27:49;99377.72;;;9.18;52.01
40490;BME280;26196;52.302;10.572;2023-01-19T13:31:50;99387.28;;;9.17;52.01
40490;BME280;26196;52.302;10.572;2023-01-19T13:35:57;99386.31;;;9.20;51.99
40490;BME280;26196;52.302;10.572;2023-01-19T13:39:58;99400.28;;;9.19;52.38
40490;BME280;26196;52.302;10.572;2023-01-19T13:44:02;99397.72;;;9.17;52.24
40490;BME280;26196;52.302;10.572;2023-01-19T13:48:06;99408.06;;;9.20;51.86
40490;BME280;26196;52.302;10.572;2023-01-19T13:52:27;99410.59;;;9.22;52.11
40490;BME280;26196;52.302;10.572;2023-01-19T13:56:28;99420.06;;;9.25;52.20
40490;BME280;26196;52.302;10.572;2023-01-19T14:00:29;99421.78;;;9.26;52.26
40490;BME280;26196;52.302;10.572;2023-01-19T14:04:31;99426.09;;;9.27;51.76
40490;BME280;26196;52.302;10.572;2023-01-19T14:08:32;99447.81;;;9.27;51.76
40490;BME280;26196;52.302;10.572;2023-01-19T14:12:33;99451.41;;;9.25;52.49
40490;BME280;26196;52.302;10.572;2023-01-19T14:16:33;99450.38;;;9.29;51.88
40490;BME280;26196;52.302;10.572;2023-01-19T14:20:34;99456.50;;;9.28;52.04
40490;BME280;26196;52.302;10.572;2023-01-19T14:24:36;99457.44;;;9.27;52.18
40490;BME280;26196;52.302;10.572;2023-01-19T14:28:42;99472.06;;;9.31;52.36
40490;BME280;26196;52.302;10.572;2023-01-19T14:32:46;99473.81;;;9.30;52.82
40490;BME280;26196;52.302;10.572;2023-01-19T14:36:49;99484.25;;;9.30;52.30
40490;BME280;26196;52.302;10.572;2023-01-19T14:40:50;99473.38;;;9.19;52.58
40490;BME280;26196;52.302;10.572;2023-01-19T14:44:52;99484.34;;;9.29;52.10
40490;BME280;26196;52.302;10.572;2023-01-19T14:49:02;99486.03;;;9.30;53.00
40490;BME280;26196;52.302;10.572;2023-01-19T14:53:06;99499.75;;;9.35;52.59
40490;BME280;26196;52.302;10.572;2023-01-19T14:57:12;99497.94;;;9.37;51.99
40490;BME280;26196;52.302;10.572;2023-01-19T15:01:13;99499.72;;;9.36;52.52
40490;BME280;26196;52.302;10.572;2023-01-19T15:05:14;99502.25;;;9.38;51.75
40490;BME280;26196;52.302;10.572;2023-01-19T15:09:14;99509.31;;;9.36;52.64
40490;BME280;26196;52.302;10.572;2023-01-19T15:13:19;99519.75;;;9.36;52.77
40490;BME280;26196;52.302;10.572;2023-01-19T15:17:21;99519.81;;;9.34;52.18
40490;BME280;26196;52.302;10.572;2023-01-19T15:21:25;99526.72;;;9.35;52.52
40490;BME280;26196;52.302;10.572;2023-01-19T15:25:28;99527.47;;;9.39;52.41
40490;BME280;26196;52.302;10.572;2023-01-19T15:29:30;99536.16;;;9.39;52.51
40490;BME280;26196;52.302;10.572;2023-01-19T15:33:30;99532.75;;;9.37;52.46
40490;BME280;26196;52.302;10.572;2023-01-19T15:37:31;99543.19;;;9.37;52.79
40490;BME280;26196;52.302;10.572;2023-01-19T15:41:32;99557.84;;;9.41;52.33
40490;BME280;26196;52.302;10.572;2023-01-19T15:49:43;99558.69;;;9.42;52.42
40490;BME280;26196;52.302;10.572;2023-01-19T15:53:44;99565.59;;;9.43;52.18
40490;BME280;26196;52.302;10.572;2023-01-19T15:57:46;99575.78;;;9.51;52.43
40490;BME280;26196;52.302;10.572;2023-01-19T16:01:46;99573.16;;;9.51;52.72
40490;BME280;26196;52.302;10.572;2023-01-19T16:05:49;99579.13;;;9.54;52.20
40490;BME280;26196;52.302;10.572;2023-01-19T16:09:49;99580.81;;;9.55;51.99
40490;BME280;26196;52.302;10.572;2023-01-19T16:13:49;99595.53;;;9.58;51.75
40490;BME280;26196;52.302;10.572;2023-01-19T16:17:50;99599.91;;;9.57;51.97
40490;BME280;26196;52.302;10.572;2023-01-19T16:21:50;99596.25;;;9.61;52.06
40490;BME280;26196;52.302;10.572;2023-01-19T16:25:58;99605.03;;;9.60;52.27
40490;BME280;26196;52.302;10.572;2023-01-19T16:29:59;99604.91;;;9.63;52.20
40490;BME280;26196;52.302;10.572;2023-01-19T16:34:03;99604.00;;;9.64;52.07
40490;BME280;26196;52.302;10.572;2023-01-19T16:38:04;99613.53;;;9.66;51.53
40490;BME280;26196;52.302;10.572;2023-01-19T16:42:04;99618.09;;;9.60;51.80
40490;BME280;26196;52.302;10.572;2023-01-19T16:46:05;99627.72;;;9.58;52.09
40490;BME280;26196;52.302;10.572;2023-01-19T16:50:05;99628.66;;;9.57;51.88
40490;BME280;26196;52.302;10.572;2023-01-19T16:54:06;99630.47;;;9.55;51.67
40490;BME280;26196;52.302;10.572;2023-01-19T16:58:06;99634.03;;;9.53;51.16
40490;BME280;26196;52.302;10.572;2023-01-19T17:02:08;99638.41;;;9.52;51.01
40490;BME280;26196;52.302;10.572;2023-01-19T17:06:12;99638.53;;;9.49;51.64
40490;BME280;26196;52.302;10.572;2023-01-19T17:10:12;99638.53;;;9.49;51.28
40490;BME280;26196;52.302;10.572;2023-01-19T17:14:17;99645.50;;;9.49;51.25
40490;BME280;26196;52.302;10.572;2023-01-19T17:18:19;99650.63;;;9.52;50.87
40490;BME280;26196;52.302;10.572;2023-01-19T17:22:19;99654.97;;;9.51;50.81
40490;BME280;26196;52.302;10.572;2023-01-19T17:26:21;99652.50;;;9.48;50.32
40490;BME280;26196;52.302;10.572;2023-01-19T17:30:21;99663.78;;;9.49;50.91
40490;BME280;26196;52.302;10.572;2023-01-19T17:34:22;99664.75;;;9.46;50.97
40490;BME280;26196;52.302;10.572;2023-01-19T17:38:22;99661.25;;;9.47;50.72
40490;BME280;26196;52.302;10.572;2023-01-19T17:42:22;99662.22;;;9.45;50.33
40490;BME280;26196;52.302;10.572;2023-01-19T17:46:25;99677.03;;;9.44;50.56
40490;BME280;26196;52.302;10.572;2023-01-19T17:50:25;99663.41;;;9.36;50.91
40490;BME280;26196;52.302;10.572;2023-01-19T17:54:26;99680.41;;;9.46;50.63
40490;BME280;26196;52.302;10.572;2023-01-19T17:58:28;99684.06;;;9.42;51.19
40490;BME280;26196;52.302;10.572;2023-01-19T18:02:29;99694.28;;;9.48;51.18
40490;BME280;26196;52.302;10.572;2023-01-19T18:06:29;99699.50;;;9.48;50.49
40490;BME280;26196;52.302;10.572;2023-01-19T18:10:30;99697.81;;;9.47;50.87
40490;BME280;26196;52.302;10.572;2023-01-19T18:14:30;99700.31;;;9.50;51.18
40490;BME280;26196;52.302;10.572;2023-01-19T18:18:31;99699.41;;;9.51;50.77
40490;BME280;26196;52.302;10.572;2023-01-19T18:22:31;99700.44;;;9.47;50.61
40490;BME280;26196;52.302;10.572;2023-01-19T18:26:33;99709.06;;;9.49;51.13
40490;BME280;26196;52.302;10.572;2023-01-19T18:30:35;99713.38;;;9.50;50.95
40490;BME280;26196;52.302;10.572;2023-01-19T18:34:36;99711.75;;;9.46;50.83
40490;BME280;26196;52.302;10.572;2023-01-19T18:38:37;99724.81;;;9.46;50.97
40490;BME280;26196;52.302;10.572;2023-01-19T18:42:38;99717.88;;;9.47;50.81
40490;BME280;26196;52.302;10.572;2023-01-19T18:46:38;99720.28;;;9.51;51.09
40490;BME280;26196;52.302;10.572;2023-01-19T18:50:38;99727.13;;;9.55;50.43
40490;BME280;26196;52.302;10.572;2023-01-19T18:54:39;99729.69;;;9.57;50.50
40490;BME280;26196;52.302;10.572;2023-01-19T18:58:40;99730.66;;;9.54;50.21
40490;BME280;26196;52.302;10.572;2023-01-19T19:02:40;99733.44;;;9.50;51.00
40490;BME280;26196;52.302;10.572;2023-01-19T19:06:41;99737.84;;;9.48;50.15
40490;BME280;26196;52.302;10.572;2023-01-19T19:10:41;99737.00;;;9.47;50.38
40490;BME280;26196;52.302;10.572;2023-01-19T19:14:41;99745.78;;;9.45;50.58
40490;BME280;26196;52.302;10.572;2023-01-19T19:18:42;99748.34;;;9.46;50.47
40490;BME280;26196;52.302;10.572;2023-01-19T19:22:42;99744.88;;;9.46;50.10
40490;BME280;26196;52.302;10.572;2023-01-19T19:26:42;99751.88;;;9.45;50.30
40490;BME280;26196;52.302;10.572;2023-01-19T19:30:43;99756.81;;;9.53;50.91
40490;BME280;26196;52.302;10.572;2023-01-19T19:34:43;99761.91;;;9.57;50.77
40490;BME280;26196;52.302;10.572;2023-01-19T19:38:44;99772.22;;;9.60;50.95
40490;BME280;26196;52.302;10.572;2023-01-19T19:42:46;99774.84;;;9.60;50.59
40490;BME280;26196;52.302;10.572;2023-01-19T19:46:47;99779.97;;;9.63;49.92
40490;BME280;26196;52.302;10.572;2023-01-19T19:50:47;99791.34;;;9.62;50.22
40490;BME280;26196;52.302;10.572;2023-01-19T19:54:47;99802.63;;;9.63;50.45
40490;BME280;26196;52.302;10.572;2023-01-19T19:58:49;99797.25;;;9.68;50.21
40490;BME280;26196;52.302;10.572;2023-01-19T20:02:50;99811.09;;;9.70;49.53
40490;BME280;26196;52.302;10.572;2023-01-19T20:06:50;99808.69;;;9.63;50.29
40490;BME280;26196;52.302;10.572;2023-01-19T20:10:50;99806.19;;;9.60;49.79
40490;BME280;26196;52.302;10.572;2023-01-19T20:14:51;99814.16;;;9.57;49.39
40490;BME280;26196;52.302;10.572;2023-01-19T20:18:52;99809.88;;;9.55;50.09
40490;BME280;26196;52.302;10.572;2023-01-19T20:22:57;99801.19;;;9.54;49.60
40490;BME280;26196;52.302;10.572;2023-01-19T20:26:57;99816.91;;;9.53;49.84
40490;BME280;26196;52.302;10.572;2023-01-19T20:31:12;99826.56;;;9.51;49.55
40490;BME280;26196;52.302;10.572;2023-01-19T20:35:14;99817.97;;;9.47;49.54
40490;BME280;26196;52.302;10.572;2023-01-19T20:39:17;99825.00;;;9.45;49.22
40490;BME280;26196;52.302;10.572;2023-01-19T20:43:18;99833.91;;;9.39;48.17
40490;BME280;26196;52.302;10.572;2023-01-19T20:47:18;99832.13;;;9.40;48.44
40490;BME280;26196;52.302;10.572;2023-01-19T20:51:19;99834.78;;;9.38;49.25
40490;BME280;26196;52.302;10.572;2023-01-19T20:55:19;99844.50;;;9.35;49.00
40490;BME280;26196;52.302;10.572;2023-01-19T20:59:20;99842.91;;;9.31;49.21
40490;BME280;26196;52.302;10.572;2023-01-19T21:03:20;99849.81;;;9.32;48.91
40490;BME280;26196;52.302;10.572;2023-01-19T21:07:20;99854.19;;;9.31;49.51
40490;BME280;26196;52.302;10.572;2023-01-19T21:11:21;99861.19;;;9.31;48.48
40490;BME280;26196;52.302;10.572;2023-01-19T21:15:23;99862.78;;;9.35;49.39
40490;BME280;26196;52.302;10.572;2023-01-19T21:19:25;99875.91;;;9.33;49.08
40490;BME280;26196;52.302;10.572;2023-01-19T21:23:26;99883.66;;;9.35;48.80
40490;BME280;26196;52.302;10.572;2023-01-19T21:27:26;99890.66;;;9.34;48.79
40490;BME280;26196;52.302;10.572;2023-01-19T21:31:27;99900.25;;;9.34;48.88
40490;BME280;26196;52.302;10.572;2023-01-19T21:35:28;99898.53;;;9.33;49.04
40490;BME280;26196;52.302;10.572;2023-01-19T21:39:28;99901.13;;;9.33;48.78
40490;BME280;26196;52.302;10.572;2023-01-19T21:43:28;99905.66;;;9.28;49.25
40490;BME280;26196;52.302;10.572;2023-01-19T21:47:29;99906.47;;;9.30;49.15
40490;BME280;26196;52.302;10.572;2023-01-19T21:51:30;99916.16;;;9.26;49.06
40490;BME280;26196;52.302;10.572;2023-01-19T21:55:34;99919.72;;;9.24;48.39
40490;BME280;26196;52.302;10.572;2023-01-19T21:59:34;99918.06;;;9.21;48.83
40490;BME280;26196;52.302;10.572;2023-01-19T22:03:35;99925.94;;;9.19;48.75
40490;BME280;26196;52.302;10.572;2023-01-19T22:07:35;99922.38;;;9.22;48.17
40490;BME280;26196;52.302;10.572;2023-01-19T22:11:35;99929.41;;;9.20;48.89
40490;BME280;26196;52.302;10.572;2023-01-19T22:15:36;99940.75;;;9.19;48.89
40490;BME280;26196;52.302;10.572;2023-01-19T22:19:36;99942.41;;;9.22;48.33